Time;durP1;ratioP1;P1;durP2;ratioP2;P2;SDS_P1;SDS_P2;PMS_P1;PMS_P2;Temp;Humidity;BMP_temperature;BMP_pressure;BME280_temperature;BME280_humidity;BME280_pressure;Samples;Min_cycle;Max_cycle;Signal;HPM_P1;HPM_P2
2022/03/28 00:01:40;;;;;;;17.90;11.30;;;;;;;3.90;69.72;94149.13;5012011;28;20046;-78
2022/03/28 00:04:08;;;;;;;58.65;28.67;;;;;;;3.92;69.07;94151.50;5012189;28;20046;-78
2022/03/28 00:06:35;;;;;;;50.50;23.98;;;;;;;3.94;69.56;94147.06;5011552;28;20046;-79
2022/03/28 00:09:02;;;;;;;32.45;16.80;;;;;;;3.72;71.82;94116.88;5011520;28;20046;-79
2022/03/28 00:11:29;;;;;;;35.58;19.67;;;;;;;3.67;76.30;94139.38;5011685;28;20096;-78
2022/03/28 00:13:56;;;;;;;33.80;18.55;;;;;;;3.73;73.89;94148.97;5011460;28;20574;-79
2022/03/28 00:16:23;;;;;;;31.50;19.02;;;;;;;3.76;72.35;94150.41;5011437;28;20037;-79
2022/03/28 00:18:49;;;;;;;33.17;17.35;;;;;;;3.78;71.23;94137.53;5011303;28;20096;-79
2022/03/28 00:21:19;;;;;;;28.38;16.45;;;;;;;3.77;72.90;94141.03;5029200;28;20095;-79
2022/03/28 00:23:46;;;;;;;24.50;14.68;;;;;;;3.68;72.17;94140.97;5031236;28;20045;-78
2022/03/28 00:26:13;;;;;;;69.60;37.70;;;;;;;3.56;75.93;94142.91;5031052;28;20041;-78
2022/03/28 00:28:40;;;;;;;41.08;23.95;;;;;;;3.60;71.63;94144.22;5031201;28;20052;-78
2022/03/28 00:31:07;;;;;;;35.90;20.05;;;;;;;3.67;71.71;94128.41;5030695;28;20175;-78
2022/03/28 00:33:34;;;;;;;33.42;19.33;;;;;;;3.60;71.44;94110.38;5031183;28;20486;-78
2022/03/28 00:36:00;;;;;;;34.22;18.60;;;;;;;3.77;73.48;94130.88;5030696;28;20041;-79
2022/03/28 00:38:29;;;;;;;31.83;18.08;;;;;;;3.77;71.81;94135.94;5030579;28;20041;-79
2022/03/28 00:40:55;;;;;;;28.13;16.52;;;;;;;3.76;71.32;94134.34;5030542;28;20049;-78
2022/03/28 00:43:22;;;;;;;30.23;17.15;;;;;;;3.76;71.53;94130.09;5030696;28;20459;-78
2022/03/28 00:45:49;;;;;;;28.85;16.40;;;;;;;3.81;71.39;94122.00;5030596;28;20185;-78
2022/03/28 00:48:16;;;;;;;30.20;16.80;;;;;;;3.78;76.37;94120.56;5030324;28;20050;-78
2022/03/28 00:50:43;;;;;;;26.42;15.32;;;;;;;3.59;74.84;94104.53;5030402;28;20129;-78
2022/03/28 00:53:13;;;;;;;26.17;16.17;;;;;;;3.67;73.56;94113.16;5030235;28;20410;-78
2022/03/28 00:55:42;;;;;;;26.23;15.85;;;;;;;3.63;72.69;94105.03;5030504;28;20081;-78
2022/03/28 00:58:09;;;;;;;26.48;14.68;;;;;;;3.74;72.52;94129.41;5032650;28;20049;-78
2022/03/28 01:00:36;;;;;;;29.73;15.80;;;;;;;3.72;73.83;94123.69;5030426;28;20554;-78
2022/03/28 01:03:03;;;;;;;25.83;14.02;;;;;;;3.60;73.90;94113.72;5030180;28;20085;-78
2022/03/28 01:05:31;;;;;;;23.52;13.88;;;;;;;3.43;73.25;94084.81;5030304;28;20124;-78
2022/03/28 01:08:00;;;;;;;23.35;13.65;;;;;;;3.56;74.08;94109.88;5030490;28;20135;-78
2022/03/28 01:10:27;;;;;;;22.25;12.05;;;;;;;3.37;79.46;94095.56;5030267;28;20534;-78
2022/03/28 01:12:55;;;;;;;20.60;12.07;;;;;;;3.37;83.58;94113.34;5030225;28;20122;-78
2022/03/28 01:15:24;;;;;;;20.08;11.95;;;;;;;3.40;77.14;94114.78;5030374;28;20060;-78
2022/03/28 01:18:09;;;;;;;18.92;11.82;;;;;;;3.39;75.60;94106.38;5030367;28;20053;-78
2022/03/28 01:20:38;;;;;;;21.05;12.52;;;;;;;3.23;77.99;94116.38;5017941;28;20133;-78
2022/03/28 01:23:07;;;;;;;18.35;11.88;;;;;;;3.25;76.11;94101.78;5010286;28;20050;-78
2022/03/28 01:25:33;;;;;;;21.27;11.68;;;;;;;3.34;75.17;94119.50;5010848;28;20059;-78
2022/03/28 01:28:01;;;;;;;21.70;12.27;;;;;;;3.18;75.00;94096.47;5010560;28;20049;-78
2022/03/28 01:30:30;;;;;;;17.65;11.95;;;;;;;3.26;74.89;94103.38;5009810;28;20046;-78
2022/03/28 01:32:58;;;;;;;19.48;12.57;;;;;;;3.18;76.68;94084.56;5010309;28;20045;-78
2022/03/28 01:35:30;;;;;;;21.40;12.40;;;;;;;3.23;77.03;94096.06;5009844;28;20133;-79
2022/03/28 01:37:58;;;;;;;26.88;14.18;;;;;;;3.21;77.60;94096.97;5010284;28;20057;-79
2022/03/28 01:40:27;;;;;;;22.95;13.40;;;;;;;3.04;81.65;94092.66;5009828;28;20046;-78
2022/03/28 01:42:54;;;;;;;38.65;21.48;;;;;;;3.01;83.17;94090.41;5009813;28;20050;-79
2022/03/28 01:45:21;;;;;;;39.63;20.17;;;;;;;3.09;78.47;94107.47;5009694;28;20042;-79
2022/03/28 01:47:48;;;;;;;40.83;20.60;;;;;;;2.78;78.55;94062.88;5009578;28;20480;-78
2022/03/28 01:50:16;;;;;;;42.45;20.88;;;;;;;3.09;77.93;94108.25;5010014;28;20446;-79
2022/03/28 01:52:43;;;;;;;26.98;15.25;;;;;;;2.92;79.34;94079.38;5009765;28;20045;-79
2022/03/28 01:55:10;;;;;;;24.58;13.23;;;;;;;2.76;79.59;94063.00;5009629;28;20042;-78
2022/03/28 01:57:40;;;;;;;25.52;13.57;;;;;;;3.12;79.05;94108.00;5009613;28;20502;-78
2022/03/28 02:00:09;;;;;;;25.15;13.70;;;;;;;3.09;78.67;94093.03;5009232;28;20049;-78
2022/03/28 02:02:36;;;;;;;22.23;13.10;;;;;;;3.04;77.71;94088.38;5010469;28;20841;-78
2022/03/28 02:05:03;;;;;;;19.40;11.75;;;;;;;3.12;79.97;94108.00;5010555;28;20105;-78
2022/03/28 02:07:30;;;;;;;22.30;12.55;;;;;;;3.13;78.90;94103.69;5009845;28;20054;-78
2022/03/28 02:09:57;;;;;;;19.73;11.93;;;;;;;2.88;78.33;94071.22;5009991;28;20495;-78
2022/03/28 02:12:24;;;;;;;18.77;10.90;;;;;;;3.05;77.85;94097.59;5009546;28;20037;-79
2022/03/28 02:14:52;;;;;;;17.88;10.07;;;;;;;2.80;77.19;94050.84;5009898;28;20591;-79
2022/03/28 02:17:18;;;;;;;15.60;10.68;;;;;;;3.04;79.10;94096.00;5009989;28;20120;-78
2022/03/28 02:19:45;;;;;;;19.90;10.15;;;;;;;2.84;79.05;94074.19;5010170;28;20050;-78
2022/03/28 02:22:12;;;;;;;14.65;9.90;;;;;;;2.97;79.86;94097.50;5009725;28;20053;-78
2022/03/28 02:24:39;;;;;;;17.50;11.18;;;;;;;2.89;81.60;94079.63;5009561;28;20038;-78
2022/03/28 02:27:07;;;;;;;15.57;10.38;;;;;;;2.88;82.04;94091.50;4999264;28;20841;-78
2022/03/28 02:29:34;;;;;;;17.77;10.93;;;;;;;2.77;82.05;94071.41;5009333;28;20077;-79
2022/03/28 02:32:02;;;;;;;17.75;10.73;;;;;;;2.64;80.06;94057.28;5009391;28;20129;-79
2022/03/28 02:34:29;;;;;;;17.52;11.98;;;;;;;2.40;89.51;94080.59;5009195;28;20038;-79
2022/03/28 02:36:56;;;;;;;17.58;11.85;;;;;;;2.04;91.90;94040.66;5009535;28;20050;-79
2022/03/28 02:39:23;;;;;;;16.70;11.10;;;;;;;2.45;85.59;94090.34;5009530;28;20108;-79
2022/03/28 02:41:50;;;;;;;18.83;11.50;;;;;;;2.39;83.61;94082.34;5008945;28;20046;-79
2022/03/28 02:44:17;;;;;;;21.13;17.58;;;;;;;2.44;85.66;94093.81;5009214;28;20478;-79
2022/03/28 02:46:44;;;;;;;19.98;14.38;;;;;;;2.32;86.82;94088.09;5009839;28;20096;-79
2022/03/28 02:49:12;;;;;;;21.15;14.45;;;;;;;2.37;85.63;94099.41;5009445;28;20053;-79
2022/03/28 02:51:39;;;;;;;23.20;13.57;;;;;;;2.33;85.24;94095.59;5009650;28;20042;-79
2022/03/28 02:54:06;;;;;;;20.85;13.38;;;;;;;2.19;83.89;94074.00;5009808;28;20041;-80
2022/03/28 02:56:34;;;;;;;17.45;11.90;;;;;;;2.15;85.82;94080.25;5009731;28;20038;-79
2022/03/28 02:59:01;;;;;;;19.13;13.55;;;;;;;2.36;86.58;94104.66;5006093;28;20495;-80
2022/03/28 03:01:28;;;;;;;17.67;12.02;;;;;;;2.17;87.14;94075.06;5008001;28;20058;-80
2022/03/28 03:03:54;;;;;;;20.90;12.05;;;;;;;2.26;85.13;94097.84;5009533;28;20487;-80
2022/03/28 03:06:23;;;;;;;17.90;11.43;;;;;;;2.22;84.14;94088.91;5010631;28;20042;-80
2022/03/28 03:08:50;;;;;;;26.85;14.80;;;;;;;2.27;84.29;94101.19;5012726;28;20058;-79
2022/03/28 03:11:17;;;;;;;21.90;13.43;;;;;;;2.05;84.55;94071.88;5009336;28;20037;-80
2022/03/28 03:13:43;;;;;;;22.80;12.77;;;;;;;2.13;84.13;94087.22;5012865;28;20081;-80
2022/03/28 03:16:10;;;;;;;21.15;13.85;;;;;;;2.21;84.69;94105.06;5013203;28;20514;-79
2022/03/28 03:18:38;;;;;;;22.75;12.32;;;;;;;1.87;88.38;94053.06;5012854;28;20045;-78
2022/03/28 03:21:05;;;;;;;19.48;12.18;;;;;;;2.05;89.71;94097.22;5012657;28;20073;-79
2022/03/28 03:23:33;;;;;;;24.42;12.48;;;;;;;2.07;86.62;94100.41;5012422;28;20054;-79
2022/03/28 03:26:00;;;;;;;18.50;12.10;;;;;;;1.85;86.54;94076.97;5012403;28;20038;-78
2022/03/28 03:28:27;;;;;;;20.30;11.30;;;;;;;1.90;84.74;94074.81;5012115;28;20042;-78
2022/03/28 03:30:54;;;;;;;20.40;11.63;;;;;;;2.06;86.06;94099.63;5012686;28;20539;-79
2022/03/28 03:33:20;;;;;;;20.17;11.75;;;;;;;1.82;87.00;94057.78;5013125;28;20129;-81
2022/03/28 03:35:47;;;;;;;18.23;10.40;;;;;;;2.02;85.41;94085.59;5012587;28;20104;-81
2022/03/28 03:38:14;;;;;;;17.35;11.07;;;;;;;2.16;85.70;94099.59;5013260;28;20053;-81
2022/03/28 03:40:42;;;;;;;18.50;11.18;;;;;;;2.22;85.61;94100.81;5012383;28;20045;-81
2022/03/28 03:43:09;;;;;;;18.80;11.02;;;;;;;2.27;86.45;94101.97;5012338;28;20529;-79
2022/03/28 03:45:36;;;;;;;20.00;11.77;;;;;;;2.24;89.12;94099.72;5012110;28;20041;-79
2022/03/28 03:48:03;;;;;;;18.35;11.27;;;;;;;2.16;91.73;94088.69;5012301;28;20046;-79
2022/03/28 03:50:30;;;;;;;16.05;9.88;;;;;;;2.28;86.81;94102.78;5012060;28;20038;-76
2022/03/28 03:52:57;;;;;;;17.13;10.63;;;;;;;2.32;85.82;94104.09;5012202;28;20133;-77
2022/03/28 03:55:24;;;;;;;18.05;11.57;;;;;;;2.30;89.47;94108.50;5012006;28;20390;-77
2022/03/28 03:57:52;;;;;;;20.63;10.88;;;;;;;1.97;92.32;94063.22;5011813;28;20049;-77
2022/03/28 04:00:19;;;;;;;23.08;13.30;;;;;;;2.02;92.72;94074.66;5011691;28;20471;-76
2022/03/28 04:02:45;;;;;;;23.13;12.77;;;;;;;2.11;88.09;94091.59;5012459;28;20046;-77
2022/03/28 04:05:12;;;;;;;16.60;11.23;;;;;;;2.19;85.95;94101.06;5012264;28;20108;-77
2022/03/28 04:07:39;;;;;;;20.73;12.52;;;;;;;2.16;86.85;94103.88;5011695;28;20049;-77
2022/03/28 04:10:07;;;;;;;20.38;12.77;;;;;;;1.90;85.57;94071.50;5009243;28;20041;-77
2022/03/28 04:12:34;;;;;;;20.55;11.93;;;;;;;1.73;87.22;94050.97;5009745;28;20049;-77
2022/03/28 04:15:02;;;;;;;17.70;11.25;;;;;;;1.84;85.52;94075.34;5012122;28;20390;-80
2022/03/28 04:17:29;;;;;;;23.17;12.50;;;;;;;2.04;85.28;94111.59;5011215;28;20108;-78
2022/03/28 04:19:57;;;;;;;17.35;11.85;;;;;;;1.94;88.39;94103.22;5011306;28;20475;-76
2022/03/28 04:22:24;;;;;;;25.55;13.82;;;;;;;1.82;90.44;94097.50;5011479;28;20046;-77
2022/03/28 04:24:51;;;;;;;24.02;14.15;;;;;;;1.85;91.75;94109.91;5010539;28;20045;-77
2022/03/28 04:27:18;;;;;;;29.90;15.30;;;;;;;1.77;90.77;94095.38;5011342;28;20487;-78
2022/03/28 04:29:45;;;;;;;29.50;15.98;;;;;;;1.89;89.99;94107.91;5011725;28;20045;-77
2022/03/28 04:32:13;;;;;;;29.45;17.38;;;;;;;1.93;89.61;94104.16;5012307;28;20503;-79
2022/03/28 04:34:40;;;;;;;30.40;17.30;;;;;;;1.96;88.90;94092.03;5012290;28;20092;-80
2022/03/28 04:37:07;;;;;;;32.05;18.35;;;;;;;1.95;90.08;94099.75;5011191;28;20057;-77
2022/03/28 04:39:52;;;;;;;36.33;18.50;;;;;;;1.80;88.80;94074.81;5011008;28;20096;-77
2022/03/28 04:42:19;;;;;;;34.97;17.33;;;;;;;1.97;88.35;94101.22;5011532;28;20434;-77
2022/03/28 04:44:46;;;;;;;26.55;17.20;;;;;;;2.00;88.12;94103.47;5011512;28;20046;-78
2022/03/28 04:47:14;;;;;;;51.55;27.83;;;;;;;1.95;90.05;94097.22;5011628;28;20046;-78
2022/03/28 04:49:41;;;;;;;90.53;47.72;;;;;;;1.70;92.59;94059.63;5011422;28;20104;-78
2022/03/28 04:52:08;;;;;;;47.50;25.45;;;;;;;1.86;92.90;94096.31;5011457;28;20060;-78
2022/03/28 04:54:36;;;;;;;36.22;20.20;;;;;;;1.82;95.29;94105.09;5011081;28;20634;-78
2022/03/28 04:57:04;;;;;;;36.33;24.25;;;;;;;1.82;98.28;94105.91;5010946;28;20541;-77
2022/03/28 04:59:31;;;;;;;41.35;22.52;;;;;;;1.97;92.24;94098.69;5010910;28;20139;-77
2022/03/28 05:01:58;;;;;;;37.10;21.13;;;;;;;2.05;89.45;94095.50;5011508;28;20045;-77
2022/03/28 05:04:27;;;;;;;38.88;21.27;;;;;;;2.08;87.39;94091.88;5011097;28;20045;-77
2022/03/28 05:06:54;;;;;;;35.70;20.50;;;;;;;2.23;87.87;94110.78;5010589;28;20054;-78
2022/03/28 05:09:20;;;;;;;58.15;28.08;;;;;;;2.07;87.42;94073.34;5010442;28;20177;-78
2022/03/28 05:11:47;;;;;;;39.13;18.25;;;;;;;2.35;86.11;94108.09;5010339;28;20475;-77
2022/03/28 05:14:14;;;;;;;23.35;16.38;;;;;;;2.31;85.13;94102.50;5010671;28;20050;-77
2022/03/28 05:16:41;;;;;;;22.63;15.07;;;;;;;2.36;84.88;94097.81;5011126;28;20045;-78
2022/03/28 05:19:08;;;;;;;28.23;15.75;;;;;;;2.40;84.54;94096.63;5010683;28;20502;-78
2022/03/28 05:21:36;;;;;;;27.95;14.73;;;;;;;2.37;84.80;94068.22;5010720;28;20045;-78
2022/03/28 05:24:03;;;;;;;26.90;13.48;;;;;;;2.72;85.96;94091.34;5008431;28;20054;-78
2022/03/28 05:26:30;;;;;;;27.75;15.57;;;;;;;2.68;86.65;94070.50;5008538;28;20502;-77
2022/03/28 05:28:57;;;;;;;29.08;15.20;;;;;;;3.02;87.62;94097.09;5008734;28;20050;-78
2022/03/28 05:31:24;;;;;;;27.95;15.27;;;;;;;2.98;86.84;94071.19;5010392;28;20053;-78
2022/03/28 05:33:50;;;;;;;27.15;15.07;;;;;;;3.11;87.02;94070.84;5010616;28;20054;-79
2022/03/28 05:36:18;;;;;;;24.25;14.27;;;;;;;3.38;89.90;94087.00;5010263;28;20479;-79
2022/03/28 05:38:46;;;;;;;28.55;15.43;;;;;;;3.37;88.47;94056.69;5010489;28;20049;-78
2022/03/28 05:41:13;;;;;;;30.42;17.08;;;;;;;3.48;93.66;94097.88;5010669;28;20092;-78
2022/03/28 05:43:40;;;;;;;34.85;20.70;;;;;;;3.69;93.34;94091.75;5010033;28;20041;-78
2022/03/28 05:46:07;;;;;;;59.22;31.35;;;;;;;3.72;88.93;94095.72;5010187;28;20046;-78
2022/03/28 05:48:33;;;;;;;50.90;28.73;;;;;;;3.98;85.04;94090.69;5010196;28;20236;-78
2022/03/28 05:51:01;;;;;;;51.38;28.15;;;;;;;3.97;84.11;94065.41;5010664;28;20069;-78
2022/03/28 05:53:28;;;;;;;51.50;28.15;;;;;;;4.40;83.99;94096.88;5010619;28;20058;-78
2022/03/28 05:55:56;;;;;;;46.65;26.90;;;;;;;4.38;87.20;94100.53;5010281;28;20057;-78
2022/03/28 05:58:23;;;;;;;48.90;25.52;;;;;;;4.37;87.00;94096.38;5009979;28;20045;-78
2022/03/28 06:00:50;;;;;;;37.53;21.05;;;;;;;4.09;91.86;94087.16;5009831;28;20509;-78
2022/03/28 06:03:17;;;;;;;33.85;21.05;;;;;;;4.01;94.60;94069.28;5010067;28;20537;-78
2022/03/28 06:05:43;;;;;;;34.80;18.55;;;;;;;4.53;92.95;94096.50;5010192;28;20458;-78
2022/03/28 06:08:10;;;;;;;35.95;20.83;;;;;;;4.80;90.76;94099.00;5009855;28;20057;-78
2022/03/28 06:10:37;;;;;;;33.08;20.08;;;;;;;5.07;87.42;94100.56;5010050;28;20395;-78
2022/03/28 06:13:06;;;;;;;50.53;26.88;;;;;;;5.33;88.50;94104.00;5010017;28;20053;-78
2022/03/28 06:15:36;;;;;;;50.35;25.25;;;;;;;5.45;87.03;94102.75;5010281;28;20073;-78
2022/03/28 06:18:04;;;;;;;56.92;27.30;;;;;;;5.61;84.81;94085.91;5010988;28;20046;-78
2022/03/28 06:20:32;;;;;;;56.30;27.17;;;;;;;5.43;83.76;94091.94;5010621;28;20046;-77
2022/03/28 06:22:58;;;;;;;55.90;27.52;;;;;;;5.76;83.92;94093.75;5009604;28;20046;-78
2022/03/28 06:25:25;;;;;;;60.15;24.23;;;;;;;5.94;80.48;94078.31;5009755;28;20096;-78
2022/03/28 06:27:53;;;;;;;66.38;28.83;;;;;;;6.14;80.30;94094.09;5009820;28;20048;-78
2022/03/28 06:30:21;;;;;;;71.10;29.58;;;;;;;6.14;80.54;94091.56;5009697;28;20050;-78
2022/03/28 06:32:48;;;;;;;77.85;29.92;;;;;;;6.13;79.99;94079.75;5009140;28;20049;-78
2022/03/28 06:35:15;;;;;;;77.35;30.05;;;;;;;6.36;79.49;94091.06;5009511;28;20050;-78
2022/03/28 06:37:42;;;;;;;81.53;30.15;;;;;;;6.78;77.67;94094.31;5009839;28;20046;-78
2022/03/28 06:40:10;;;;;;;69.53;27.83;;;;;;;7.22;73.60;94093.84;5009373;28;20042;-79
2022/03/28 06:42:36;;;;;;;73.38;28.13;;;;;;;7.62;71.20;94104.03;5009511;28;20050;-79
2022/03/28 06:45:04;;;;;;;94.53;29.85;;;;;;;7.87;70.19;94070.63;5009519;28;20050;-78
2022/03/28 06:47:33;;;;;;;102.32;32.10;;;;;;;8.22;70.15;94100.91;5011366;28;20038;-78
2022/03/28 06:49:59;;;;;;;89.00;29.48;;;;;;;8.55;67.27;94075.03;5013527;28;20053;-78
2022/03/28 06:52:26;;;;;;;68.57;24.83;;;;;;;9.21;65.84;94106.84;5013838;28;20049;-79
2022/03/28 06:54:53;;;;;;;77.15;26.23;;;;;;;9.45;62.35;94097.25;5013612;28;20046;-79
2022/03/28 06:57:20;;;;;;;86.55;27.45;;;;;;;9.82;61.38;94101.59;5010319;28;20045;-79
2022/03/28 06:59:47;;;;;;;80.30;25.67;;;;;;;10.09;60.69;94101.84;5011507;28;20169;-78
2022/03/28 07:02:14;;;;;;;59.80;22.75;;;;;;;9.65;60.53;94106.94;5012599;28;20053;-78
2022/03/28 07:04:42;;;;;;;58.00;23.58;;;;;;;10.08;60.66;94095.91;5013356;28;20080;-79
2022/03/28 07:07:09;;;;;;;57.85;21.55;;;;;;;10.03;60.19;94100.78;5012924;28;20050;-78
2022/03/28 07:09:36;;;;;;;48.38;19.58;;;;;;;9.72;61.35;94100.09;5013017;28;20545;-78
2022/03/28 07:12:05;;;;;;;43.58;18.83;;;;;;;9.21;63.33;94091.47;5013327;28;20096;-79
2022/03/28 07:14:32;;;;;;;60.45;22.00;;;;;;;9.25;64.02;94091.13;5013120;28;20045;-78
2022/03/28 07:16:59;;;;;;;58.78;21.92;;;;;;;9.66;63.72;94102.59;5012994;28;20038;-78
2022/03/28 07:19:26;;;;;;;44.20;21.45;;;;;;;9.92;62.43;94094.38;5012848;28;20042;-79
2022/03/28 07:21:55;;;;;;;43.25;18.27;;;;;;;10.36;61.30;94076.34;5012742;28;20053;-79
2022/03/28 07:24:21;;;;;;;60.55;23.15;;;;;;;10.59;58.77;94095.94;5012613;28;20050;-79
2022/03/28 07:26:49;;;;;;;62.10;23.33;;;;;;;10.75;58.43;94064.81;5012758;28;20124;-79
2022/03/28 07:29:17;;;;;;;65.00;23.33;;;;;;;11.31;57.12;94088.00;5012586;28;20479;-79
2022/03/28 07:31:44;;;;;;;57.85;21.75;;;;;;;11.77;54.80;94095.03;5012884;28;20403;-79
2022/03/28 07:36:57;;;;;;;54.88;20.35;;;;;;;11.55;55.59;94067.88;5012465;28;20057;-78
2022/03/28 07:39:24;;;;;;;60.25;21.30;;;;;;;11.94;55.67;94078.47;5012578;28;20042;-79
2022/03/28 07:41:52;;;;;;;51.10;17.20;;;;;;;12.07;54.09;94075.13;5012511;28;20181;-78
2022/03/28 07:44:19;;;;;;;39.67;15.60;;;;;;;12.31;53.07;94067.81;5012372;28;20045;-78
2022/03/28 07:46:47;;;;;;;42.38;15.65;;;;;;;12.66;52.08;94070.16;5012694;28;20403;-78
2022/03/28 07:49:14;;;;;;;36.30;14.68;;;;;;;12.79;51.96;94090.75;5012536;28;20046;-78
2022/03/28 07:51:41;;;;;;;36.85;14.38;;;;;;;12.49;52.75;94047.38;5012744;28;20104;-79
2022/03/28 07:54:10;;;;;;;29.38;12.55;;;;;;;12.98;52.92;94085.75;5012234;28;20042;-79
2022/03/28 07:56:37;;;;;;;23.23;10.48;;;;;;;12.72;52.02;94076.28;5011961;28;20096;-78
2022/03/28 07:59:04;;;;;;;22.52;9.13;;;;;;;12.69;52.94;94077.50;5011353;28;20050;-78
2022/03/28 08:01:31;;;;;;;13.80;7.93;;;;;;;12.66;53.05;94067.56;5012384;28;20042;-78
2022/03/28 08:03:57;;;;;;;19.17;9.77;;;;;;;12.59;54.13;94072.72;5012439;28;20049;-78
2022/03/28 08:06:25;;;;;;;18.25;8.45;;;;;;;13.00;53.15;94070.84;5011965;28;20042;-78
2022/03/28 08:08:51;;;;;;;27.10;10.38;;;;;;;13.13;52.45;94069.22;5012103;28;20092;-77
2022/03/28 08:11:20;;;;;;;26.33;9.40;;;;;;;13.42;51.64;94073.09;5012013;28;20522;-78
2022/03/28 08:13:47;;;;;;;27.30;11.38;;;;;;;13.67;51.63;94049.19;5001061;28;20042;-78
2022/03/28 08:16:14;;;;;;;23.83;10.93;;;;;;;13.77;49.33;94066.78;5011788;28;20491;-78
2022/03/28 08:18:41;;;;;;;24.23;11.02;;;;;;;13.89;50.56;94062.53;5012107;28;20060;-78
2022/03/28 08:21:08;;;;;;;21.20;10.20;;;;;;;14.13;48.26;94038.72;5011881;28;20078;-79
2022/03/28 08:23:35;;;;;;;23.40;9.98;;;;;;;14.24;47.59;94040.63;5012059;28;20056;-79
2022/03/28 08:26:04;;;;;;;25.40;10.80;;;;;;;14.03;48.19;94039.97;5011937;28;20100;-78
2022/03/28 08:28:32;;;;;;;24.60;9.68;;;;;;;13.99;47.24;94025.91;5011840;28;20038;-78
2022/03/28 08:30:59;;;;;;;18.65;9.27;;;;;;;14.25;46.96;94041.41;5011757;28;20088;-78
2022/03/28 08:33:26;;;;;;;18.90;8.68;;;;;;;14.45;46.65;94036.09;5011612;28;20045;-78
2022/03/28 08:35:53;;;;;;;19.45;9.15;;;;;;;14.86;46.42;94035.72;5011918;28;20038;-78
2022/03/28 08:38:19;;;;;;;26.05;10.32;;;;;;;15.32;45.59;94033.59;5011509;28;20133;-79
2022/03/28 08:40:48;;;;;;;21.85;9.68;;;;;;;15.49;43.38;94013.06;5011592;28;20046;-79
2022/03/28 08:43:18;;;;;;;20.77;8.80;;;;;;;15.43;43.10;94021.69;5011650;28;20052;-79
2022/03/28 08:45:49;;;;;;;18.83;8.02;;;;;;;15.55;42.82;94008.81;5011554;28;20100;-79
2022/03/28 08:48:16;;;;;;;17.35;7.88;;;;;;;15.58;43.71;94016.13;5011792;28;20439;-79
2022/03/28 08:50:45;;;;;;;25.13;8.65;;;;;;;15.47;43.27;94012.50;5011401;28;20050;-79
2022/03/28 08:53:13;;;;;;;20.80;7.95;;;;;;;15.05;43.74;94010.63;5011060;28;20053;-79
2022/03/28 08:55:41;;;;;;;18.80;9.20;;;;;;;15.10;44.75;94008.94;5010901;28;20046;-78
2022/03/28 08:58:08;;;;;;;20.73;8.90;;;;;;;15.15;44.06;94004.94;5011244;28;20369;-79
2022/03/28 09:00:35;;;;;;;22.23;9.70;;;;;;;15.46;43.38;94005.75;5011263;28;20092;-78
2022/03/28 09:03:03;;;;;;;23.05;8.75;;;;;;;15.79;42.24;93996.72;5011098;28;20403;-79
2022/03/28 09:05:32;;;;;;;18.65;9.98;;;;;;;16.07;41.60;93981.56;5010689;28;20616;-79
2022/03/28 09:07:59;;;;;;;22.33;9.43;;;;;;;15.73;41.32;93980.25;5011084;28;20069;-79
2022/03/28 09:10:29;;;;;;;19.30;8.73;;;;;;;16.29;41.78;93984.34;5010975;28;20046;-79
2022/03/28 09:13:01;;;;;;;22.00;8.90;;;;;;;16.73;40.98;93975.41;5010766;28;20483;-79
2022/03/28 09:15:42;;;;;;;18.63;7.72;;;;;;;16.56;39.60;93960.56;5011405;28;20053;-79
2022/03/28 09:18:20;;;;;;;20.63;8.18;;;;;;;16.24;39.75;93979.09;5011183;28;20495;-79
2022/03/28 09:20:49;;;;;;;23.20;8.48;;;;;;;16.50;39.75;93967.47;5011054;28;20829;-79
2022/03/28 09:23:36;;;;;;;19.55;9.05;;;;;;;16.51;39.86;93976.00;5010204;28;20045;-79
2022/03/28 09:26:11;;;;;;;25.42;9.48;;;;;;;16.32;39.24;93931.28;5010458;28;20092;-79
2022/03/28 09:28:47;;;;;;;24.20;8.80;;;;;;;17.21;40.40;93953.53;5010736;28;20049;-79
2022/03/28 09:31:26;;;;;;;19.92;7.93;;;;;;;17.41;37.98;93960.09;5010542;28;20286;-79
2022/03/28 09:34:07;;;;;;;22.85;9.48;;;;;;;17.98;37.89;93942.00;5010572;28;20173;-79
2022/03/28 09:36:47;;;;;;;18.25;8.63;;;;;;;18.46;36.69;93952.84;5010305;28;20042;-80
2022/03/28 09:39:17;;;;;;;19.50;7.95;;;;;;;18.40;37.14;93951.19;5010065;28;20517;-79
2022/03/28 09:41:45;;;;;;;28.52;9.43;;;;;;;18.67;36.09;93922.69;5010216;28;20467;-79
2022/03/28 09:44:12;;;;;;;24.45;7.90;;;;;;;19.06;33.54;93944.44;5010216;28;20054;-80
2022/03/28 09:46:39;;;;;;;21.77;8.25;;;;;;;19.29;32.55;93937.38;5010527;28;20045;-79
2022/03/28 09:49:09;;;;;;;12.65;7.63;;;;;;;19.39;31.60;93926.28;5010327;28;20042;-80
2022/03/28 09:51:37;;;;;;;13.70;7.50;;;;;;;19.27;30.08;93906.38;5008176;28;20046;-80
2022/03/28 09:54:04;;;;;;;15.07;7.75;;;;;;;19.22;30.71;93919.38;5008185;28;20046;-81
2022/03/28 09:56:31;;;;;;;19.25;7.13;;;;;;;19.31;30.64;93933.50;5008846;28;20487;-81
2022/03/28 09:58:59;;;;;;;18.65;7.80;;;;;;;19.36;30.19;93925.72;5009990;28;20053;-80
2022/03/28 10:01:29;;;;;;;13.38;7.97;;;;;;;19.27;30.99;93909.00;5010066;28;20042;-81
2022/03/28 10:04:00;;;;;;;12.35;7.07;;;;;;;19.01;30.51;93884.47;5009652;28;20073;-81
2022/03/28 10:06:29;;;;;;;14.40;6.68;;;;;;;19.04;31.19;93916.06;5010148;28;20111;-80
2022/03/28 10:08:57;;;;;;;16.35;6.80;;;;;;;18.62;31.32;93880.19;5009570;28;20108;-80
2022/03/28 10:11:24;;;;;;;15.20;6.72;;;;;;;18.96;31.52;93911.25;5009764;28;20053;-80
2022/03/28 10:13:52;;;;;;;16.42;8.05;;;;;;;18.72;30.53;93877.69;5009894;28;20414;-81
2022/03/28 10:16:19;;;;;;;13.60;7.88;;;;;;;18.87;30.64;93876.28;5010327;28;20050;-81
2022/03/28 10:18:49;;;;;;;13.77;6.95;;;;;;;19.01;30.84;93892.28;5010040;28;20046;-80
2022/03/28 10:21:20;;;;;;;15.80;7.30;;;;;;;19.08;30.33;93885.13;5009264;28;20053;-81
2022/03/28 10:23:51;;;;;;;13.68;7.45;;;;;;;18.96;30.85;93846.97;5010616;28;20085;-81
2022/03/28 10:26:20;;;;;;;15.35;8.07;;;;;;;19.05;30.75;93883.78;5010531;28;20133;-81
2022/03/28 10:29:07;;;;;;;17.55;7.38;;;;;;;19.10;30.67;93877.84;5009872;28;20108;-81
2022/03/28 10:31:35;;;;;;;14.23;8.00;;;;;;;19.05;30.44;93864.75;5009674;28;20049;-81
2022/03/28 10:34:03;;;;;;;18.13;10.00;;;;;;;18.97;30.07;93852.94;5009791;28;20447;-81
2022/03/28 10:36:32;;;;;;;19.80;10.88;;;;;;;18.96;30.26;93846.97;5009623;28;21122;-81
2022/03/28 10:39:38;;;;;;;17.65;10.75;;;;;;;19.05;30.13;93864.75;5006761;28;20104;-80
2022/03/28 10:42:07;;;;;;;33.80;24.23;;;;;;;18.91;28.91;93864.34;5008820;28;20042;-80
2022/03/28 10:44:45;;;;;;;26.38;16.77;;;;;;;18.67;28.82;93828.19;5009641;28;20045;-81
2022/03/28 10:47:14;;;;;;;24.58;14.85;;;;;;;18.95;28.92;93855.81;5009190;28;20497;-81
2022/03/28 10:49:43;;;;;;;40.88;29.13;;;;;;;18.39;28.36;93773.56;5009847;28;20049;-81
2022/03/28 10:52:14;;;;;;;24.92;15.23;;;;;;;18.94;28.47;93851.63;5009470;28;20473;-81
2022/03/28 10:54:43;;;;;;;20.88;9.82;;;;;;;18.94;28.65;93849.03;5009905;28;20045;-81
2022/03/28 10:57:25;;;;;;;21.23;9.48;;;;;;;18.92;29.59;93813.84;5009412;28;20046;-81
2022/03/28 11:00:02;;;;;;;30.83;13.43;;;;;;;19.20;29.26;93841.47;5009512;28;20050;-80
2022/03/28 11:02:29;;;;;;;32.78;23.15;;;;;;;19.12;28.75;93833.34;5009599;28;20161;-80
2022/03/28 11:05:07;;;;;;;38.55;27.35;;;;;;;18.97;28.34;93813.91;5009866;28;20046;-81
2022/03/28 11:07:34;;;;;;;39.88;30.05;;;;;;;19.09;28.28;93839.81;5009509;28;20061;-81
2022/03/28 11:10:06;;;;;;;38.17;26.42;;;;;;;18.82;28.38;93815.34;5010186;28;20049;-80
2022/03/28 11:12:37;;;;;;;21.70;13.80;;;;;;;19.00;28.70;93829.03;5009774;28;20451;-80
2022/03/28 11:15:16;;;;;;;16.92;9.95;;;;;;;18.89;29.11;93825.53;5009768;28;20472;-81
2022/03/28 11:17:58;;;;;;;26.13;19.00;;;;;;;18.95;28.34;93829.00;5009967;28;20112;-81
2022/03/28 11:20:27;;;;;;;54.88;26.13;;;;;;;18.76;28.75;93792.91;5008189;28;20788;-82
2022/03/28 11:22:57;;;;;;;219.43;72.38;;;;;;;18.85;28.63;93814.06;5009697;28;20426;-81
2022/03/28 11:25:43;;;;;;;152.98;51.83;;;;;;;18.87;28.28;93813.81;5009247;28;20084;-81
2022/03/28 11:28:24;;;;;;;611.65;244.43;;;;;;;18.85;28.00;93808.06;5009159;28;20038;-81
2022/03/28 11:31:00;;;;;;;590.53;221.48;;;;;;;18.79;28.66;93800.22;5009271;28;20049;-82
2022/03/28 11:33:46;;;;;;;72.63;26.90;;;;;;;18.66;28.62;93782.41;5010365;28;20049;-81